Архив погоды в Ильинском

Метеограмма Ильинский
Понедельник, 22 Октября
Время местн. Темп Ветер Видим Явления Облачность нижн/средн/верх Атм. давл. Влжн Точка росы ВНГО R Сост. почвы Tg s
Напр Скр Прв ур.ст ур.м изм
16:00 +10.3° Ю,Ю-З 5 8 50 км - переменная облачность 767 769 -0.5 58% +2.5° 1 км - - - -
13:00 +9.1° Ю-З 3 5 более 50 км - облачно с прояснениями 768 769 -0.7 47% -1.7° 1 км - - - -
10:00 +3.5° В 1 2 50 км - переменная облачность 768 770 +0.7 84% +1.1° 1 км - - - -
07:00 -3.5° В 1 3 10 км - переменная облачность 768 769 +0.2 89% -5° 1 км 0 Замерзшая -3° -
01:00 -2.9° В 2 3 10 км - ясно 767 769 +0.3 89% -4.4° более 2.5 км - - - -
Воскресенье, 21 Октября
Время местн. Темп Ветер Видим Явления Облачность нижн/средн/верх Атм. давл. Влжн Точка росы ВНГО R Сост. почвы Tg s
Напр Скр Прв ур.ст ур.м изм
22:00 -1.7° В,Ю-В 3 3 10 км - ясно 767 769 +1.2 81% -4.6° более 2.5 км - - - -
19:00 +3.5° В,С-В 2 10 10 км - ясно 766 767 +1.4 64% -2.6° более 2.5 км 0 - - -
16:00 +7.7° С-З 6 10 50 км - ясно 764 766 +0.4 44% -3.8° более 2.5 км - - - -
13:00 +9° З,С-З 4 10 более 50 км - переменная облачность 764 766 +0.4 49% -1° 1.5 км - - - -
10:00 +7.6° С-З 4 7 50 км - переменная облачность 764 765 +1.4 60% +0.4° - - - - -
07:00 +4.5° С,С-В 4 5 10 км - облачно с прояснениями 762 764 +1.4 88% +2.7° 1 км 0 Влажная (без луж) +2° -
04:00 +4.7° С,С-В 2 2 10 км - переменная облачность 761 762 +1.4 95% +3.9° более 2.5 км - - - -
01:00 +5° В 2 3 10 км - переменная облачность 759 761 -1.1 89% +3.4° - - - - -
Суббота, 20 Октября
Время местн. Темп Ветер Видим Явления Облачность нижн/средн/верх Атм. давл. Влжн Точка росы ВНГО R Сост. почвы Tg s
Напр Скр Прв ур.ст ур.м изм
22:00 +4.3° В 3 5 10 км - переменная облачность 760 762 -0.2 84% +1.8° более 2.5 км - - - -
19:00 +6.7° В 2 3 10 км - ясно 761 762 -0.2 73% +2.3° более 2.5 км 0 - - -
16:00 +10.2° Ю-З 4 6 более 50 км - ясно 761 763 -0.6 58% +2.3° более 2.5 км - - - -
13:00 +10.1° З 2 3 50 км - ясно 762 763 -0.8 64% +3.6° более 2.5 км - - - -
10:00 +7.9° Ю-З 1 3 более 50 км - переменная облачность 762 764 +0.5 73% +3.4° 1.5 км - - - -
07:00 +0.4° В,С-В 1 2 50 км - переменная облачность 762 764 +0.1 95% -0.3° 1 км 0 Влажная (без луж) - -
04:00 +1.6° В 1 4 10 км - ясно 762 763 +0.1 93% +0.6° более 2.5 км - - - -
01:00 +3.9° С-В 1 2 10 км - ясно 762 764 +0.4 83% +1.2° более 2.5 км - - - -
Пятница, 19 Октября
Время местн. Темп Ветер Видим Явления Облачность нижн/средн/верх Атм. давл. Влжн Точка росы ВНГО R Сост. почвы Tg s
Напр Скр Прв ур.ст ур.м изм
22:00 +6.4° С 2 4 10 км - облачно 761 763 +0.8 78% +2.8° более 2.5 км - - - -
19:00 +7.9° С-З 1 2 10 км - облачно 761 762 -0.4 74% +3.6° 1 км 0 - - -
16:00 +10.3° З 4 8 более 50 км - облачно 761 763 -0.4 65% +4° 1 км - - - -
13:00 +11.3° Ю-З 5 8 50 км - облачно 762 763 -1.1 57% +3.2° - - - - -
10:00 +10.4° З,Ю-З 5 7 более 50 км - облачно 762 764 +0.1 57% +2.3° более 2.5 км - - - -